sensor_id;sensor_type;location;lat;lon;timestamp;temperature;humidity
56498;DHT22;51790;45.558;12.076;2023-07-20T05:15:34;27.70;66.80
56498;DHT22;51790;45.558;12.076;2023-07-20T05:21:37;25.00;76.40
56498;DHT22;51790;45.558;12.076;2023-07-20T05:27:39;24.90;77.50
56498;DHT22;51790;45.558;12.076;2023-07-20T05:33:40;24.90;78.20
56498;DHT22;51790;45.558;12.076;2023-07-20T05:39:41;25.10;76.50
56498;DHT22;51790;45.558;12.076;2023-07-20T05:45:42;25.20;76.70
56498;DHT22;51790;45.558;12.076;2023-07-20T05:51:44;25.40;74.70
56498;DHT22;51790;45.558;12.076;2023-07-20T05:57:45;25.50;74.50
56498;DHT22;51790;45.558;12.076;2023-07-20T06:03:47;25.60;74.30
56498;DHT22;51790;45.558;12.076;2023-07-20T06:09:49;25.70;73.90
56498;DHT22;51790;45.558;12.076;2023-07-20T06:15:50;25.90;73.40
56498;DHT22;51790;45.558;12.076;2023-07-20T06:21:51;25.70;72.90
56498;DHT22;51790;45.558;12.076;2023-07-20T06:27:54;25.90;72.40
56498;DHT22;51790;45.558;12.076;2023-07-20T06:33:55;26.30;71.70
56498;DHT22;51790;45.558;12.076;2023-07-20T06:39:57;26.30;70.80
56498;DHT22;51790;45.558;12.076;2023-07-20T06:45:58;26.70;71.10
56498;DHT22;51790;45.558;12.076;2023-07-20T06:51:59;26.40;70.90
56498;DHT22;51790;45.558;12.076;2023-07-20T06:58:00;26.10;73.60
56498;DHT22;51790;45.558;12.076;2023-07-20T07:04:01;26.20;72.80
56498;DHT22;51790;45.558;12.076;2023-07-20T07:10:03;26.30;71.90
56498;DHT22;51790;45.558;12.076;2023-07-20T07:16:06;26.40;71.70
56498;DHT22;51790;45.558;12.076;2023-07-20T07:22:08;26.60;70.60
56498;DHT22;51790;45.558;12.076;2023-07-20T07:28:09;26.80;70.00
56498;DHT22;51790;45.558;12.076;2023-07-20T07:34:11;26.90;70.00
56498;DHT22;51790;45.558;12.076;2023-07-20T07:40:12;26.90;70.40
56498;DHT22;51790;45.558;12.076;2023-07-20T07:46:14;27.50;68.90
56498;DHT22;51790;45.558;12.076;2023-07-20T07:52:15;27.60;65.90
56498;DHT22;51790;45.558;12.076;2023-07-20T07:58:16;28.00;66.40
56498;DHT22;51790;45.558;12.076;2023-07-20T08:04:18;28.10;65.90
56498;DHT22;51790;45.558;12.076;2023-07-20T08:10:20;28.20;64.50
56498;DHT22;51790;45.558;12.076;2023-07-20T08:16:21;28.40;63.80
56498;DHT22;51790;45.558;12.076;2023-07-20T08:22:23;28.50;63.80
56498;DHT22;51790;45.558;12.076;2023-07-20T08:28:24;28.00;62.70
56498;DHT22;51790;45.558;12.076;2023-07-20T08:34:27;28.20;62.80
56498;DHT22;51790;45.558;12.076;2023-07-20T08:40:28;28.20;62.70
56498;DHT22;51790;45.558;12.076;2023-07-20T08:46:29;28.20;61.10
56498;DHT22;51790;45.558;12.076;2023-07-20T08:52:31;28.70;62.20
56498;DHT22;51790;45.558;12.076;2023-07-20T08:58:35;29.00;61.10
56498;DHT22;51790;45.558;12.076;2023-07-20T09:04:37;28.90;61.40
56498;DHT22;51790;45.558;12.076;2023-07-20T09:10:38;29.10;62.50
56498;DHT22;51790;45.558;12.076;2023-07-20T09:16:53;29.30;62.10
56498;DHT22;51790;45.558;12.076;2023-07-20T09:22:55;29.30;60.90
56498;DHT22;51790;45.558;12.076;2023-07-20T09:28:57;29.50;60.70
56498;DHT22;51790;45.558;12.076;2023-07-20T09:34:58;29.40;60.70
56498;DHT22;51790;45.558;12.076;2023-07-20T09:40:59;29.70;59.40
56498;DHT22;51790;45.558;12.076;2023-07-20T09:47:02;29.60;58.30
56498;DHT22;51790;45.558;12.076;2023-07-20T09:53:04;29.40;58.50
56498;DHT22;51790;45.558;12.076;2023-07-20T09:59:05;29.70;57.80
56498;DHT22;51790;45.558;12.076;2023-07-20T10:05:07;29.60;54.80
56498;DHT22;51790;45.558;12.076;2023-07-20T10:11:09;29.70;52.20
56498;DHT22;51790;45.558;12.076;2023-07-20T10:17:13;29.70;53.50
56498;DHT22;51790;45.558;12.076;2023-07-20T10:23:14;30.10;54.30
56498;DHT22;51790;45.558;12.076;2023-07-20T10:29:16;30.10;56.30
56498;DHT22;51790;45.558;12.076;2023-07-20T10:35:17;30.10;56.70
56498;DHT22;51790;45.558;12.076;2023-07-20T10:41:20;30.10;54.50
56498;DHT22;51790;45.558;12.076;2023-07-20T10:47:21;30.10;54.80
56498;DHT22;51790;45.558;12.076;2023-07-20T10:53:22;30.10;52.30
56498;DHT22;51790;45.558;12.076;2023-07-20T11:05:38;30.70;51.70
56498;DHT22;51790;45.558;12.076;2023-07-20T11:11:40;30.60;55.00
56498;DHT22;51790;45.558;12.076;2023-07-20T11:17:41;30.70;51.10
56498;DHT22;51790;45.558;12.076;2023-07-20T11:23:42;30.90;52.40
56498;DHT22;51790;45.558;12.076;2023-07-20T11:29:45;31.00;50.50
56498;DHT22;51790;45.558;12.076;2023-07-20T11:35:46;30.70;51.20
56498;DHT22;51790;45.558;12.076;2023-07-20T11:41:48;30.70;50.90
56498;DHT22;51790;45.558;12.076;2023-07-20T11:47:50;30.70;49.70
56498;DHT22;51790;45.558;12.076;2023-07-20T11:53:51;30.60;50.10
56498;DHT22;51790;45.558;12.076;2023-07-20T11:59:56;30.90;50.00
56498;DHT22;51790;45.558;12.076;2023-07-20T12:06:05;30.80;50.30
56498;DHT22;51790;45.558;12.076;2023-07-20T12:12:10;31.10;50.10
56498;DHT22;51790;45.558;12.076;2023-07-20T12:18:14;31.20;48.40
56498;DHT22;51790;45.558;12.076;2023-07-20T12:24:15;31.40;49.50
56498;DHT22;51790;45.558;12.076;2023-07-20T12:30:18;31.20;49.10
56498;DHT22;51790;45.558;12.076;2023-07-20T12:36:19;31.20;49.90
56498;DHT22;51790;45.558;12.076;2023-07-20T12:42:20;31.10;49.70
56498;DHT22;51790;45.558;12.076;2023-07-20T12:48:22;31.20;49.90
56498;DHT22;51790;45.558;12.076;2023-07-20T12:54:23;31.30;50.40
56498;DHT22;51790;45.558;12.076;2023-07-20T13:00:24;31.30;49.90
56498;DHT22;51790;45.558;12.076;2023-07-20T13:06:26;31.50;49.00
56498;DHT22;51790;45.558;12.076;2023-07-20T13:12:27;31.50;49.50
56498;DHT22;51790;45.558;12.076;2023-07-20T13:18:28;31.60;49.60
56498;DHT22;51790;45.558;12.076;2023-07-20T13:24:31;31.60;48.70
56498;DHT22;51790;45.558;12.076;2023-07-20T13:30:32;31.60;47.60
56498;DHT22;51790;45.558;12.076;2023-07-20T13:36:34;31.50;49.20
56498;DHT22;51790;45.558;12.076;2023-07-20T13:42:35;32.00;48.10
56498;DHT22;51790;45.558;12.076;2023-07-20T13:48:37;32.00;48.40
56498;DHT22;51790;45.558;12.076;2023-07-20T13:54:38;31.90;48.70
56498;DHT22;51790;45.558;12.076;2023-07-20T14:00:39;31.70;49.30
56498;DHT22;51790;45.558;12.076;2023-07-20T14:06:40;32.20;47.90
56498;DHT22;51790;45.558;12.076;2023-07-20T14:12:42;32.30;46.10
56498;DHT22;51790;45.558;12.076;2023-07-20T14:18:43;32.30;47.20
56498;DHT22;51790;45.558;12.076;2023-07-20T14:24:47;32.10;48.30
56498;DHT22;51790;45.558;12.076;2023-07-20T14:30:48;32.20;48.80
56498;DHT22;51790;45.558;12.076;2023-07-20T14:36:49;32.20;49.40
56498;DHT22;51790;45.558;12.076;2023-07-20T14:42:50;32.10;49.70
56498;DHT22;51790;45.558;12.076;2023-07-20T14:48:53;32.10;50.10
56498;DHT22;51790;45.558;12.076;2023-07-20T14:54:54;32.50;48.60
56498;DHT22;51790;45.558;12.076;2023-07-20T15:00:55;32.60;49.00
56498;DHT22;51790;45.558;12.076;2023-07-20T15:06:57;32.60;48.80
56498;DHT22;51790;45.558;12.076;2023-07-20T15:12:58;32.70;48.00
56498;DHT22;51790;45.558;12.076;2023-07-20T15:18:59;32.70;48.40
56498;DHT22;51790;45.558;12.076;2023-07-20T15:25:02;32.90;47.50
56498;DHT22;51790;45.558;12.076;2023-07-20T15:31:03;33.00;47.50
56498;DHT22;51790;45.558;12.076;2023-07-20T15:37:05;33.10;47.80
56498;DHT22;51790;45.558;12.076;2023-07-20T15:43:06;33.10;47.10
56498;DHT22;51790;45.558;12.076;2023-07-20T15:49:07;33.00;46.60
56498;DHT22;51790;45.558;12.076;2023-07-20T15:55:09;33.10;47.00
56498;DHT22;51790;45.558;12.076;2023-07-20T16:01:10;33.20;46.30
56498;DHT22;51790;45.558;12.076;2023-07-20T16:07:11;33.20;46.70
56498;DHT22;51790;45.558;12.076;2023-07-20T16:13:12;33.20;46.60
56498;DHT22;51790;45.558;12.076;2023-07-20T16:19:14;33.30;46.90
56498;DHT22;51790;45.558;12.076;2023-07-20T16:25:15;33.30;46.30
56498;DHT22;51790;45.558;12.076;2023-07-20T16:31:16;33.40;46.30
56498;DHT22;51790;45.558;12.076;2023-07-20T16:37:17;33.30;45.50
56498;DHT22;51790;45.558;12.076;2023-07-20T16:43:19;33.30;44.60
56498;DHT22;51790;45.558;12.076;2023-07-20T16:49:20;33.20;44.70
56498;DHT22;51790;45.558;12.076;2023-07-20T16:55:21;33.40;45.90
56498;DHT22;51790;45.558;12.076;2023-07-20T17:01:22;33.40;45.90
56498;DHT22;51790;45.558;12.076;2023-07-20T17:07:24;33.40;45.10
56498;DHT22;51790;45.558;12.076;2023-07-20T17:13:27;33.50;46.00
56498;DHT22;51790;45.558;12.076;2023-07-20T17:19:28;33.30;46.40
56498;DHT22;51790;45.558;12.076;2023-07-20T17:25:29;34.30;44.70
56498;DHT22;51790;45.558;12.076;2023-07-20T17:31:30;36.10;41.00
56498;DHT22;51790;45.558;12.076;2023-07-20T17:37:32;37.90;38.90
56498;DHT22;51790;45.558;12.076;2023-07-20T17:43:33;38.90;37.60
56498;DHT22;51790;45.558;12.076;2023-07-20T17:49:35;38.80;38.10
56498;DHT22;51790;45.558;12.076;2023-07-20T17:55:36;38.40;38.80
56498;DHT22;51790;45.558;12.076;2023-07-20T18:01:37;38.00;39.40
56498;DHT22;51790;45.558;12.076;2023-07-20T18:07:38;37.50;40.20
56498;DHT22;51790;45.558;12.076;2023-07-20T18:13:41;36.80;41.40
56498;DHT22;51790;45.558;12.076;2023-07-20T18:19:42;36.40;42.10
56498;DHT22;51790;45.558;12.076;2023-07-20T18:25:44;35.70;43.70
56498;DHT22;51790;45.558;12.076;2023-07-20T18:31:45;33.10;47.70
56498;DHT22;51790;45.558;12.076;2023-07-20T18:37:47;31.60;53.60
56498;DHT22;51790;45.558;12.076;2023-07-20T18:43:49;30.70;56.10
56498;DHT22;51790;45.558;12.076;2023-07-20T18:49:50;30.40;57.90
56498;DHT22;51790;45.558;12.076;2023-07-20T18:55:55;30.20;57.00
56498;DHT22;51790;45.558;12.076;2023-07-20T19:01:57;30.20;58.20
56498;DHT22;51790;45.558;12.076;2023-07-20T19:07:59;29.70;58.50
56498;DHT22;51790;45.558;12.076;2023-07-20T19:14:02;29.40;60.60
56498;DHT22;51790;45.558;12.076;2023-07-20T19:20:03;29.20;60.80
56498;DHT22;51790;45.558;12.076;2023-07-20T19:26:06;29.00;62.50
56498;DHT22;51790;45.558;12.076;2023-07-20T19:32:07;29.00;62.40
56498;DHT22;51790;45.558;12.076;2023-07-20T19:38:09;28.90;64.70
56498;DHT22;51790;45.558;12.076;2023-07-20T19:44:11;28.50;67.50
56498;DHT22;51790;45.558;12.076;2023-07-20T19:50:12;28.40;69.50
56498;DHT22;51790;45.558;12.076;2023-07-20T19:56:14;28.20;71.30
56498;DHT22;51790;45.558;12.076;2023-07-20T20:02:15;28.10;71.90
56498;DHT22;51790;45.558;12.076;2023-07-20T20:08:16;28.00;72.40
56498;DHT22;51790;45.558;12.076;2023-07-20T20:14:18;28.00;72.50
56498;DHT22;51790;45.558;12.076;2023-07-20T20:20:19;27.90;72.30
56498;DHT22;51790;45.558;12.076;2023-07-20T20:26:20;27.80;73.10
56498;DHT22;51790;45.558;12.076;2023-07-20T20:32:22;28.20;69.20
56498;DHT22;51790;45.558;12.076;2023-07-20T20:38:24;27.70;70.50
56498;DHT22;51790;45.558;12.076;2023-07-20T20:44:25;27.60;70.90
56498;DHT22;51790;45.558;12.076;2023-07-20T20:50:27;27.40;72.30
56498;DHT22;51790;45.558;12.076;2023-07-20T20:56:28;27.50;72.30
56498;DHT22;51790;45.558;12.076;2023-07-20T21:02:29;27.50;72.60
56498;DHT22;51790;45.558;12.076;2023-07-20T21:08:31;27.10;73.50
56498;DHT22;51790;45.558;12.076;2023-07-20T21:14:32;26.90;72.90
56498;DHT22;51790;45.558;12.076;2023-07-20T21:20:34;27.20;71.20
56498;DHT22;51790;45.558;12.076;2023-07-20T21:26:35;27.20;70.90
56498;DHT22;51790;45.558;12.076;2023-07-20T21:32:36;27.20;71.00
56498;DHT22;51790;45.558;12.076;2023-07-20T21:38:38;27.10;72.10
56498;DHT22;51790;45.558;12.076;2023-07-20T21:44:39;26.90;73.00
56498;DHT22;51790;45.558;12.076;2023-07-20T21:50:50;27.10;73.10
56498;DHT22;51790;45.558;12.076;2023-07-20T21:56:52;27.10;72.90
56498;DHT22;51790;45.558;12.076;2023-07-20T22:02:53;27.10;73.20
56498;DHT22;51790;45.558;12.076;2023-07-20T22:08:54;27.10;73.20
56498;DHT22;51790;45.558;12.076;2023-07-20T22:14:55;27.40;72.30
56498;DHT22;51790;45.558;12.076;2023-07-20T22:20:57;27.00;73.40
56498;DHT22;51790;45.558;12.076;2023-07-20T22:27:05;26.80;74.10
56498;DHT22;51790;45.558;12.076;2023-07-20T22:33:09;26.70;74.80
56498;DHT22;51790;45.558;12.076;2023-07-20T22:39:10;26.60;75.70
56498;DHT22;51790;45.558;12.076;2023-07-20T22:45:12;26.70;75.60
56498;DHT22;51790;45.558;12.076;2023-07-20T22:51:13;26.70;75.50
56498;DHT22;51790;45.558;12.076;2023-07-20T22:57:14;26.60;76.10
56498;DHT22;51790;45.558;12.076;2023-07-20T23:03:15;26.90;75.60
56498;DHT22;51790;45.558;12.076;2023-07-20T23:09:17;27.00;74.90
56498;DHT22;51790;45.558;12.076;2023-07-20T23:15:19;26.70;75.80
56498;DHT22;51790;45.558;12.076;2023-07-20T23:21:20;26.70;75.70
56498;DHT22;51790;45.558;12.076;2023-07-20T23:27:21;26.60;77.20
56498;DHT22;51790;45.558;12.076;2023-07-20T23:33:22;26.60;76.60
56498;DHT22;51790;45.558;12.076;2023-07-20T23:39:23;26.70;76.20
56498;DHT22;51790;45.558;12.076;2023-07-20T23:45:25;26.70;75.90
56498;DHT22;51790;45.558;12.076;2023-07-20T23:51:26;26.60;76.90
56498;DHT22;51790;45.558;12.076;2023-07-20T23:57:27;26.50;77.10
